LAS weather

McCarran International Airport
Las Vegas, Nevada, United States

Public forecast

Using degrees Fahrenheit for public forecast. Weather courtesy of forecast.io.

METAR (pilot weather report)

Retrieved 2017/09/22 00:56 UTC (42 minutes ago):

KLAS 220056Z 23021G30KT 10SM FEW100 FEW150 24/05 A2964 RMK AO2 PK WND 22033/0037 SLP015 T02440050

TAF (pilot weather forecast)

Forecast is more than 12 hours old.

Retrieved 2017/09/21 00:22 UTC (1 day ago):

TAF KLAS 212320Z 2200/2306 23024G36KT P6SM SCT090 SCT150 FM220300 23020G28KT P6SM FEW090 FM220600 30010KT P6SM SKC FM221600 03007KT P6SM SKC FM230300 25006KT P6SM SKC